Main page
METAR-TAF:

METAR-TAF

Airports :

Brussels, Zaventem,

Brussels Airport

latitude: Belgium, longitude: 50-54N, elevation: 004-32E m

Current weather observation

The report was made 37 minutes ago, at 07:20 UTC
Wind 7 kt from the East/Northeast
Temperature 6°C
Humidity 87%
Pressure 1025 hPa
Visibility: 3300 m
Few clouds at a height of 1000 ft
mist

METAR: EBBR 240720Z 06007KT 3300 BR FEW010 06/04 Q1025 NOSIG

Time: 07:57 (07:57 UTC)

Forecast

The report was made 2 hours and 47 minutes ago, at 05:10 UTC
Forecast valid from 24 at 06 UTC to 25 at 12 UTC
Wind 9 kt from the East/Northeast
Visibility 10 km or more
no clouds below 1500 m and no cumulonimbus
Probability 40% :
Temporary
from 24 at 06 UTC to 24 at 08 UTC
Visibility: 4000 m
mist
Probability 30% :
Temporary
from 24 at 06 UTC to 24 at 08 UTC
Broken clouds at a height of 700 ft

TAF: EBBR 240510Z 2406/2512 07009KT CAVOK PROB40 TEMPO 2406/2408 4000 BR PROB30 TEMPO 2406/2408 BKN007

Weather observations and forecasts of more than 4000 airports (METAR and TAF reports).

The available stations are represented by yellow and red dots on the map.

Hover mouse over dot to see the name of the station.

Then click to see weather observations and forecasts.

To change the map : click on the green buttons with a black cross to zoom in, on the green button with a dash to zoom out, or on the green arrows for adjacent maps.


METAR-TAF: